KHKA

Blytheville Municipal Airport

Blytheville, Arkansas, USA
METAR KHKA 181553Z AUTO 25010KT 10SM OVC008 08/08 A3021 RMK AO2 SLP231 T00830083 $
Observed Flight Rules
Dec-18 @ 15:53 UTC (44 minutes ago) Instrument Flight Rules
Wind Visibility Clouds
250° at 10 knots 10 miles
  • Overcast at 800' AGL
Temperatures Readings
Current 8°C / 46°F
Dewpoint 8°C / 46°F
Humidity 100%
Altimeter 30.21" Hg
Pressure 1023.1 hPa
Elevation 78
METAR KHKA 181553Z AUTO 25010KT 10SM OVC008 08/08 A3021 RMK AO2 SLP231 T00830083 $
Observed Flight Rules
Dec-18 @ 15:53 UTC
(44 minutes ago)
IFR
Wind Visibility
250° at 10 knots 10 miles
Clouds
  • Overcast at 800' AGL
Temperature Dewpoint
8°C / 46°F 8°C / 46°F
Humidity Altimeter Pressure
100% 30.21" Hg 1023.1 hPa